Time;durP1;ratioP1;P1;durP2;ratioP2;P2;SDS_P1;SDS_P2;PMS_P1;PMS_P2;Temp;Humidity;BMP_temperature;BMP_pressure;BME280_temperature;BME280_humidity;BME280_pressure;Samples;Min_cycle;Max_cycle;Signal;HPM_P1;HPM_P2
2024/01/21 00:00:38;;;;;;;14.97;9.20;;;-4.90;95.90;;;;;;5077876;28;20256;-83
2024/01/21 00:03:05;;;;;;;11.93;8.10;;;-4.90;95.30;;;;;;5084285;28;20201;-84
2024/01/21 00:05:32;;;;;;;15.07;9.83;;;-4.80;95.60;;;;;;5082292;28;20225;-85
2024/01/21 00:08:00;;;;;;;20.27;10.00;;;-4.80;95.60;;;;;;5083784;28;20209;-84
2024/01/21 00:10:27;;;;;;;16.30;9.60;;;-4.70;95.60;;;;;;5084275;28;20214;-83
2024/01/21 00:12:54;;;;;;;18.00;8.93;;;-4.60;95.70;;;;;;5066317;28;20533;-84
2024/01/21 00:15:22;;;;;;;14.60;8.80;;;-4.50;95.00;;;;;;5080165;28;20199;-83
2024/01/21 00:17:49;;;;;;;11.07;7.63;;;-4.50;95.00;;;;;;5086017;28;20207;-84
2024/01/21 00:20:16;;;;;;;16.03;8.27;;;-4.50;94.40;;;;;;5080664;28;20230;-84
2024/01/21 00:22:42;;;;;;;12.27;7.97;;;-4.50;94.20;;;;;;5079133;28;20215;-84
2024/01/21 00:25:11;;;;;;;12.60;7.87;;;-4.50;94.20;;;;;;5061892;28;20624;-83
2024/01/21 00:27:37;;;;;;;14.67;8.23;;;-4.60;94.00;;;;;;5084557;28;21452;-84
2024/01/21 00:30:05;;;;;;;10.60;6.80;;;-4.50;94.70;;;;;;5080222;28;20211;-83
2024/01/21 00:32:33;;;;;;;11.63;6.87;;;-4.60;93.80;;;;;;5084038;28;20722;-83
2024/01/21 00:35:00;;;;;;;11.00;6.83;;;-4.80;93.00;;;;;;5081566;28;20669;-84
2024/01/21 00:37:26;;;;;;;9.50;6.87;;;-4.80;93.70;;;;;;5075922;28;20785;-83
2024/01/21 00:39:56;;;;;;;14.30;7.93;;;-4.90;93.70;;;;;;5082861;28;20562;-83
2024/01/21 00:42:24;;;;;;;10.27;6.50;;;-5.00;94.10;;;;;;5048684;28;20212;-83
2024/01/21 00:44:51;;;;;;;12.03;7.30;;;-5.00;94.90;;;;;;5081764;28;20849;-84
2024/01/21 00:47:20;;;;;;;11.90;7.47;;;-4.90;94.00;;;;;;5077154;28;20208;-83
2024/01/21 00:49:47;;;;;;;11.13;6.67;;;-4.90;94.00;;;;;;5085737;28;20655;-83
2024/01/21 00:52:14;;;;;;;13.40;8.00;;;-5.20;92.90;;;;;;5079658;28;20269;-83
2024/01/21 00:54:40;;;;;;;11.80;6.80;;;-5.30;93.90;;;;;;5079317;28;20205;-83
2024/01/21 00:57:07;;;;;;;10.57;6.53;;;-5.30;94.30;;;;;;5082113;28;20197;-85
2024/01/21 00:59:35;;;;;;;11.03;5.60;;;-5.60;93.60;;;;;;5081522;28;20214;-83
2024/01/21 01:02:02;;;;;;;10.77;5.77;;;-5.60;93.90;;;;;;5089136;28;20224;-83
2024/01/21 01:04:29;;;;;;;9.77;6.67;;;-5.80;93.40;;;;;;5073064;28;20224;-85
2024/01/21 01:06:56;;;;;;;10.57;6.23;;;-5.70;95.20;;;;;;5084051;28;20214;-83
2024/01/21 01:09:23;;;;;;;9.60;5.70;;;-5.60;94.80;;;;;;5083216;28;20219;-83
2024/01/21 01:11:49;;;;;;;9.70;5.63;;;-5.70;94.30;;;;;;5078108;28;20206;-83
2024/01/21 01:14:16;;;;;;;8.00;5.33;;;-5.70;94.30;;;;;;5089908;28;20202;-83
2024/01/21 01:16:44;;;;;;;7.97;5.47;;;-5.70;94.00;;;;;;5083127;28;20197;-83
2024/01/21 01:19:11;;;;;;;8.13;5.10;;;-5.90;93.50;;;;;;5087902;28;20204;-83
2024/01/21 01:21:38;;;;;;;9.50;5.90;;;-6.00;93.60;;;;;;5079759;28;20216;-83
2024/01/21 01:24:05;;;;;;;9.83;6.33;;;-5.70;94.60;;;;;;5077430;28;20202;-84
2024/01/21 01:26:31;;;;;;;8.97;5.50;;;-5.40;95.30;;;;;;5062769;28;20199;-83
2024/01/21 01:28:58;;;;;;;9.43;5.93;;;-5.20;94.60;;;;;;5077517;28;20679;-83
2024/01/21 01:31:25;;;;;;;8.57;6.07;;;-5.20;93.50;;;;;;5084010;28;20205;-83
2024/01/21 01:33:53;;;;;;;8.00;5.07;;;-5.20;93.40;;;;;;5073634;28;20544;-84
2024/01/21 01:36:20;;;;;;;8.97;5.80;;;-5.20;93.10;;;;;;5077827;28;21085;-83
2024/01/21 01:38:47;;;;;;;10.37;6.03;;;-5.30;92.90;;;;;;5077927;28;20194;-83
2024/01/21 01:41:15;;;;;;;11.10;6.53;;;-5.30;92.90;;;;;;5084667;28;20234;-83
2024/01/21 01:43:42;;;;;;;10.00;7.63;;;-5.20;94.00;;;;;;5052116;28;20192;-83
2024/01/21 01:46:09;;;;;;;10.13;6.07;;;-5.30;92.90;;;;;;5078139;28;20206;-86
2024/01/21 01:48:36;;;;;;;9.00;5.63;;;-5.40;92.90;;;;;;5079726;28;20215;-83
2024/01/21 01:51:05;;;;;;;8.17;5.67;;;-5.40;93.50;;;;;;5080684;28;20203;-83
2024/01/21 01:53:34;;;;;;;8.13;5.23;;;-5.50;92.90;;;;;;5083701;28;20204;-84
2024/01/21 01:56:01;;;;;;;10.33;5.73;;;-5.50;93.40;;;;;;5085472;28;20278;-83
2024/01/21 01:58:29;;;;;;;8.47;5.40;;;-5.40;93.80;;;;;;5082460;28;20713;-84
2024/01/21 02:00:57;;;;;;;9.23;5.13;;;-5.60;92.80;;;;;;5084291;28;20223;-85
2024/01/21 02:03:25;;;;;;;10.90;5.50;;;-5.80;92.80;;;;;;5089714;28;20222;-83
2024/01/21 02:05:52;;;;;;;8.53;5.00;;;-5.60;94.00;;;;;;5087557;28;20970;-83
2024/01/21 02:08:21;;;;;;;8.73;4.97;;;-5.40;94.10;;;;;;5081421;28;20200;-84
2024/01/21 02:10:48;;;;;;;7.53;4.83;;;-5.50;92.90;;;;;;5079140;28;20197;-83
2024/01/21 02:13:15;;;;;;;8.93;5.43;;;-5.60;92.80;;;;;;5089286;28;20189;-83
2024/01/21 02:15:43;;;;;;;8.87;5.30;;;-5.70;92.80;;;;;;5084490;28;20204;-84
2024/01/21 02:18:09;;;;;;;9.30;5.53;;;-5.70;92.80;;;;;;5082599;28;20237;-83
2024/01/21 02:20:36;;;;;;;6.93;5.00;;;-5.70;92.80;;;;;;5081202;28;20197;-83
2024/01/21 02:23:07;;;;;;;7.43;4.60;;;-5.90;92.80;;;;;;5085967;28;20289;-83
2024/01/21 02:25:33;;;;;;;8.00;4.77;;;-6.10;92.70;;;;;;5079166;28;20195;-83
2024/01/21 02:28:00;;;;;;;9.23;5.10;;;-6.20;93.30;;;;;;5087158;28;20189;-83
2024/01/21 02:30:27;;;;;;;8.33;4.73;;;-6.20;93.90;;;;;;5084392;28;20210;-84
2024/01/21 02:32:54;;;;;;;7.53;4.60;;;-6.20;93.50;;;;;;5089829;28;20204;-83
2024/01/21 02:35:21;;;;;;;7.83;5.37;;;-6.20;94.00;;;;;;5072215;28;20211;-83
2024/01/21 02:37:48;;;;;;;7.63;4.83;;;-6.10;94.20;;;;;;5069581;28;20203;-83
2024/01/21 02:40:16;;;;;;;9.13;5.43;;;-6.00;93.80;;;;;;5086356;28;20215;-84
2024/01/21 02:42:43;;;;;;;7.83;4.90;;;-6.10;93.50;;;;;;5085930;28;20216;-83
2024/01/21 02:45:10;;;;;;;7.90;5.00;;;-5.90;93.60;;;;;;5080706;28;20217;-83
2024/01/21 02:47:37;;;;;;;8.57;5.37;;;-6.10;92.70;;;;;;5070715;28;20213;-84
2024/01/21 02:50:07;;;;;;;7.53;4.73;;;-6.30;92.70;;;;;;5080520;28;20197;-83
2024/01/21 02:52:34;;;;;;;6.93;5.67;;;-6.40;92.70;;;;;;5067420;28;20256;-83
2024/01/21 02:55:01;;;;;;;7.30;4.73;;;-6.60;93.10;;;;;;5089502;28;20200;-83
2024/01/21 02:57:30;;;;;;;7.53;4.63;;;-6.70;93.60;;;;;;5085717;28;20209;-83
2024/01/21 03:00:00;;;;;;;8.43;4.73;;;-6.70;93.70;;;;;;5082837;28;20259;-83
2024/01/21 03:02:27;;;;;;;8.23;5.00;;;-6.70;93.80;;;;;;5082012;28;20209;-84
2024/01/21 03:04:54;;;;;;;9.20;4.77;;;-6.80;94.00;;;;;;5087342;28;20222;-83
2024/01/21 03:07:21;;;;;;;7.20;4.93;;;-6.70;94.40;;;;;;5086720;28;20197;-82
2024/01/21 03:09:47;;;;;;;8.97;5.03;;;-6.70;94.30;;;;;;5084031;28;20558;-82
2024/01/21 03:12:14;;;;;;;7.53;4.53;;;-6.80;94.10;;;;;;5088679;28;20212;-83
2024/01/21 03:14:43;;;;;;;8.53;4.90;;;-6.70;94.20;;;;;;5070357;28;20193;-83
2024/01/21 03:17:09;;;;;;;10.63;5.00;;;-6.60;94.30;;;;;;5080984;28;20193;-83
2024/01/21 03:19:36;;;;;;;11.30;5.10;;;-6.60;94.30;;;;;;5081482;28;20235;-83
2024/01/21 03:22:03;;;;;;;8.23;4.57;;;-6.40;94.60;;;;;;5087901;28;20224;-82
2024/01/21 03:24:31;;;;;;;9.80;5.03;;;-6.40;94.00;;;;;;5056638;28;20208;-83
2024/01/21 03:26:59;;;;;;;6.50;4.43;;;-6.30;93.70;;;;;;5081327;28;20196;-83
2024/01/21 03:29:26;;;;;;;9.00;4.67;;;-6.40;93.70;;;;;;5080604;28;20209;-85
2024/01/21 03:31:54;;;;;;;7.37;4.80;;;-6.30;94.50;;;;;;5081053;28;20205;-83
2024/01/21 03:34:21;;;;;;;7.80;4.40;;;-5.90;94.50;;;;;;5077686;28;20207;-88
2024/01/21 03:36:48;;;;;;;9.97;4.43;;;-5.90;93.20;;;;;;5086190;28;20947;-82
2024/01/21 03:39:14;;;;;;;9.27;4.80;;;-5.90;92.80;;;;;;5086636;28;20193;-83
2024/01/21 03:41:41;;;;;;;7.90;4.50;;;-6.20;92.20;;;;;;5085677;28;20228;-83
2024/01/21 03:44:08;;;;;;;11.00;4.53;;;-6.50;92.50;;;;;;5092212;28;20205;-82
2024/01/21 03:46:35;;;;;;;7.07;4.80;;;-6.40;93.60;;;;;;5080208;28;20199;-84
2024/01/21 03:49:03;;;;;;;6.33;4.53;;;-6.50;93.40;;;;;;5090194;28;20232;-83
2024/01/21 03:51:30;;;;;;;10.43;5.07;;;-6.50;93.70;;;;;;5085345;28;20201;-83
2024/01/21 03:53:59;;;;;;;9.30;4.67;;;-6.30;93.90;;;;;;5082507;28;20413;-84
2024/01/21 03:56:26;;;;;;;7.67;4.90;;;-6.30;93.40;;;;;;5083975;28;20205;-83
2024/01/21 03:58:52;;;;;;;8.47;4.60;;;-6.40;92.90;;;;;;5088276;28;20193;-83
2024/01/21 04:01:19;;;;;;;7.47;4.87;;;-6.50;93.50;;;;;;5081586;28;20221;-84
2024/01/21 04:03:46;;;;;;;7.50;4.60;;;-6.40;94.00;;;;;;5084046;28;20633;-83
2024/01/21 04:06:14;;;;;;;5.63;4.20;;;-6.50;93.50;;;;;;5083481;28;20209;-83
2024/01/21 04:08:41;;;;;;;7.80;4.90;;;-6.60;93.10;;;;;;5083832;28;20204;-83
2024/01/21 04:11:08;;;;;;;7.87;4.63;;;-6.70;93.20;;;;;;5062292;28;20197;-83
2024/01/21 04:13:35;;;;;;;6.50;4.17;;;-6.80;93.50;;;;;;5081279;28;20196;-82
2024/01/21 04:16:02;;;;;;;6.57;4.53;;;-6.70;94.80;;;;;;5081098;28;20201;-83
2024/01/21 04:18:28;;;;;;;6.67;4.60;;;-6.50;94.50;;;;;;5087437;28;20197;-82
2024/01/21 04:20:55;;;;;;;9.70;4.90;;;-6.50;94.00;;;;;;5083733;28;20204;-84
2024/01/21 04:23:23;;;;;;;9.03;4.60;;;-6.50;93.60;;;;;;5067317;28;20197;-83
2024/01/21 04:25:52;;;;;;;7.67;4.30;;;-6.70;93.30;;;;;;5082309;28;20200;-83
2024/01/21 04:28:19;;;;;;;9.77;4.90;;;-6.60;94.20;;;;;;5083057;28;20193;-83
2024/01/21 04:30:46;;;;;;;7.77;4.37;;;-6.40;94.30;;;;;;5081929;28;20200;-82
2024/01/21 04:33:12;;;;;;;7.57;4.83;;;-6.30;94.20;;;;;;5086101;28;20201;-84
2024/01/21 04:35:39;;;;;;;7.63;4.27;;;-6.30;93.50;;;;;;5083724;28;20193;-83
2024/01/21 04:38:06;;;;;;;5.70;4.00;;;-6.30;93.60;;;;;;5081601;28;20229;-83
2024/01/21 04:40:34;;;;;;;8.53;4.70;;;-6.20;93.20;;;;;;5084205;28;20189;-83
2024/01/21 04:43:01;;;;;;;7.47;4.63;;;-6.20;93.10;;;;;;5082076;28;20236;-83
2024/01/21 04:45:28;;;;;;;6.73;4.90;;;-6.20;93.00;;;;;;5075477;28;20562;-83
2024/01/21 04:47:55;;;;;;;7.80;4.60;;;-6.20;93.50;;;;;;5083909;28;20204;-83
2024/01/21 04:50:21;;;;;;;6.23;4.40;;;-6.00;93.60;;;;;;5085118;28;20198;-83
2024/01/21 04:52:48;;;;;;;7.60;4.83;;;-5.90;92.80;;;;;;5078461;28;20205;-83
2024/01/21 04:55:15;;;;;;;7.83;4.43;;;-6.00;92.80;;;;;;5075555;28;20209;-82
2024/01/21 04:57:45;;;;;;;6.23;4.20;;;-6.00;92.80;;;;;;5063500;28;20205;-83
2024/01/21 05:00:13;;;;;;;6.77;4.60;;;-6.00;92.80;;;;;;5080875;28;20207;-84
2024/01/21 05:02:40;;;;;;;8.97;5.27;;;-6.30;92.70;;;;;;5069035;28;20299;-83
2024/01/21 05:05:10;;;;;;;7.43;4.67;;;-6.50;92.70;;;;;;5089675;28;20224;-83
2024/01/21 05:07:37;;;;;;;8.20;4.53;;;-6.50;93.20;;;;;;5061117;28;20236;-83
2024/01/21 05:10:04;;;;;;;9.37;4.90;;;-6.50;93.10;;;;;;5075410;28;20203;-82
2024/01/21 05:12:31;;;;;;;8.53;4.97;;;-6.40;94.10;;;;;;5089788;28;20307;-83
2024/01/21 05:14:59;;;;;;;9.80;4.60;;;-6.40;93.20;;;;;;5087560;28;20208;-83
2024/01/21 05:17:26;;;;;;;8.77;4.53;;;-6.40;93.60;;;;;;5078862;28;20201;-83
2024/01/21 05:19:53;;;;;;;6.60;4.40;;;-6.30;94.00;;;;;;5084312;28;20200;-83
2024/01/21 05:22:19;;;;;;;5.80;3.93;;;-5.90;94.70;;;;;;5069310;28;20693;-83
2024/01/21 05:24:46;;;;;;;8.27;4.10;;;-5.80;93.80;;;;;;5046742;28;20205;-83
2024/01/21 05:27:14;;;;;;;6.70;4.10;;;-6.20;92.70;;;;;;5080639;28;20204;-83
2024/01/21 05:29:43;;;;;;;6.73;4.20;;;-6.20;92.80;;;;;;5063861;28;20573;-83
2024/01/21 05:32:12;;;;;;;5.83;4.00;;;-6.40;93.10;;;;;;5086043;28;20196;-83
2024/01/21 05:34:39;;;;;;;6.07;4.23;;;-6.20;94.70;;;;;;5078928;28;20644;-83
2024/01/21 05:37:06;;;;;;;6.77;4.40;;;-6.00;94.30;;;;;;5078179;28;20192;-82
2024/01/21 05:39:33;;;;;;;8.83;4.50;;;-5.90;93.60;;;;;;5082903;28;20255;-83
2024/01/21 05:42:03;;;;;;;5.30;3.90;;;-6.10;92.70;;;;;;5085816;28;20708;-82
2024/01/21 05:44:30;;;;;;;5.63;4.00;;;-6.20;92.70;;;;;;5074423;28;20228;-83
2024/01/21 05:46:58;;;;;;;4.83;3.00;;;-6.10;94.30;;;;;;5078991;28;20957;-83
2024/01/21 05:49:26;;;;;;;4.23;2.83;;;-5.80;94.80;;;;;;5082359;28;20194;-83
2024/01/21 05:51:53;;;;;;;5.63;2.97;;;-5.70;93.10;;;;;;5069321;28;20205;-83
2024/01/21 05:54:20;;;;;;;4.73;3.03;;;-5.70;92.80;;;;;;5079320;28;20300;-86
2024/01/21 05:56:47;;;;;;;4.17;2.87;;;-5.80;91.90;;;;;;5085263;28;20863;-84
2024/01/21 05:59:16;;;;;;;4.27;2.93;;;-5.90;92.30;;;;;;5066650;28;20198;-83
2024/01/21 06:01:44;;;;;;;5.67;2.90;;;-5.80;92.90;;;;;;5080016;28;20598;-83
2024/01/21 06:04:11;;;;;;;2.77;2.30;;;-5.80;92.60;;;;;;5083832;28;20224;-83
2024/01/21 06:06:39;;;;;;;4.10;2.70;;;-5.90;92.20;;;;;;5084071;28;20204;-83
2024/01/21 06:09:06;;;;;;;3.53;2.43;;;-6.10;91.10;;;;;;5080675;28;20546;-83
2024/01/21 06:11:33;;;;;;;4.67;2.50;;;-6.10;92.20;;;;;;5084131;28;20919;-83
2024/01/21 06:14:00;;;;;;;6.13;2.67;;;-6.20;91.70;;;;;;5065497;28;20204;-83
2024/01/21 06:16:27;;;;;;;5.43;2.93;;;-6.20;92.70;;;;;;5079632;28;20605;-85
2024/01/21 06:18:54;;;;;;;3.97;2.73;;;-6.10;92.90;;;;;;5081142;28;20197;-84
2024/01/21 06:21:21;;;;;;;3.97;2.77;;;-6.10;92.10;;;;;;5078359;28;20235;-83
2024/01/21 06:23:49;;;;;;;6.33;2.87;;;-5.90;92.80;;;;;;5081830;28;20231;-83
2024/01/21 06:26:17;;;;;;;3.23;2.60;;;-5.80;91.80;;;;;;5081884;28;20200;-83
2024/01/21 06:28:44;;;;;;;4.73;3.00;;;-5.80;92.40;;;;;;5074401;28;20664;-87
2024/01/21 06:31:11;;;;;;;4.53;3.00;;;-5.80;91.50;;;;;;5080789;28;20217;-84
2024/01/21 06:33:39;;;;;;;3.83;2.57;;;-6.00;91.00;;;;;;5078183;28;20220;-83
2024/01/21 06:36:06;;;;;;;5.50;3.00;;;-6.30;90.80;;;;;;5081664;28;20197;-83
2024/01/21 06:38:33;;;;;;;5.43;3.27;;;-6.40;91.90;;;;;;5078282;28;20201;-83
2024/01/21 06:41:01;;;;;;;3.90;3.13;;;-6.30;92.20;;;;;;5084025;28;20542;-83
2024/01/21 06:43:28;;;;;;;4.77;3.07;;;-6.40;91.90;;;;;;5080629;28;20223;-83
2024/01/21 06:45:55;;;;;;;5.17;3.10;;;-6.40;92.70;;;;;;5083135;28;20197;-83
2024/01/21 06:48:22;;;;;;;4.93;3.47;;;-6.20;92.70;;;;;;5071212;28;20228;-83
2024/01/21 06:50:50;;;;;;;4.27;3.10;;;-6.00;92.80;;;;;;5082613;28;20205;-84
2024/01/21 06:53:17;;;;;;;5.77;2.90;;;-5.90;91.80;;;;;;5080055;28;20205;-81
2024/01/21 06:55:44;;;;;;;3.60;2.60;;;-5.80;91.40;;;;;;5081503;28;20193;-82
2024/01/21 06:58:13;;;;;;;4.33;2.97;;;-6.00;90.90;;;;;;5078809;28;20284;-81
2024/01/21 07:00:40;;;;;;;7.13;3.80;;;-6.00;91.80;;;;;;5082253;28;20284;-82
2024/01/21 07:03:07;;;;;;;5.30;3.23;;;-6.20;91.20;;;;;;5086829;28;20824;-83
2024/01/21 07:05:33;;;;;;;6.40;3.73;;;-6.40;91.50;;;;;;5066061;28;20580;-91
2024/01/21 07:08:01;;;;;;;6.20;4.00;;;-6.50;91.90;;;;;;5081771;28;20204;-80
2024/01/21 07:10:27;;;;;;;5.83;3.83;;;-6.40;92.70;;;;;;5085027;28;20660;-79
2024/01/21 07:12:56;;;;;;;6.97;3.97;;;-6.30;92.60;;;;;;5079882;28;20205;-79
2024/01/21 07:15:24;;;;;;;11.40;4.60;;;-6.10;92.70;;;;;;5082295;28;20205;-79
2024/01/21 07:17:51;;;;;;;8.27;4.90;;;-6.10;91.60;;;;;;5083168;28;20295;-79
2024/01/21 07:20:18;;;;;;;8.97;5.07;;;-6.00;92.20;;;;;;5089326;28;20200;-79
2024/01/21 07:22:45;;;;;;;7.20;5.07;;;-5.90;92.20;;;;;;5078318;28;20225;-79
2024/01/21 07:25:14;;;;;;;6.33;3.50;;;-5.80;92.30;;;;;;5082380;28;20315;-80
2024/01/21 07:27:42;;;;;;;9.43;4.07;;;-5.80;91.90;;;;;;5080935;28;20208;-79
2024/01/21 07:30:10;;;;;;;6.93;4.97;;;-5.60;91.70;;;;;;5050720;28;20210;-79
2024/01/21 07:32:39;;;;;;;10.83;4.80;;;-5.70;90.80;;;;;;5080343;28;20193;-79
2024/01/21 07:35:06;;;;;;;8.60;4.63;;;-5.50;91.60;;;;;;5082759;28;20205;-79
2024/01/21 07:37:33;;;;;;;8.60;4.70;;;-5.50;91.00;;;;;;5080425;28;20614;-79
2024/01/21 07:39:59;;;;;;;6.60;4.47;;;-5.30;91.10;;;;;;5079142;28;20201;-79
2024/01/21 07:42:26;;;;;;;6.63;4.40;;;-5.30;91.20;;;;;;5080886;28;20228;-82
2024/01/21 07:44:53;;;;;;;7.97;4.10;;;-5.60;89.40;;;;;;5081866;28;20205;-80
2024/01/21 07:47:20;;;;;;;10.47;4.27;;;-5.90;90.10;;;;;;5080631;28;20234;-83
2024/01/21 07:49:48;;;;;;;5.90;3.57;;;-6.10;90.60;;;;;;5080908;28;20654;-82
2024/01/21 07:52:16;;;;;;;7.67;3.07;;;-5.90;91.90;;;;;;5088115;28;20198;-82
2024/01/21 07:54:43;;;;;;;6.53;3.50;;;-5.70;91.90;;;;;;5074370;28;20626;-81
2024/01/21 07:57:10;;;;;;;5.33;2.80;;;-5.60;91.20;;;;;;5086889;28;20546;-82
2024/01/21 07:59:37;;;;;;;4.37;3.13;;;-5.40;91.30;;;;;;5067316;28;20195;-83
2024/01/21 08:02:04;;;;;;;5.40;2.97;;;-5.20;90.40;;;;;;5087975;28;20195;-82
2024/01/21 08:04:31;;;;;;;4.30;3.03;;;-5.00;89.30;;;;;;5076248;28;20596;-79
2024/01/21 08:06:59;;;;;;;6.53;3.10;;;-5.00;88.50;;;;;;5084493;28;20212;-78
2024/01/21 08:09:29;;;;;;;6.87;3.40;;;-5.00;88.50;;;;;;5084724;28;20210;-80
2024/01/21 08:11:56;;;;;;;5.93;3.20;;;-4.50;90.70;;;;;;5091314;28;20853;-80
2024/01/21 08:14:23;;;;;;;5.33;3.57;;;-4.50;88.70;;;;;;5084253;28;20212;-79
2024/01/21 08:16:50;;;;;;;4.40;2.87;;;-4.70;88.50;;;;;;5077552;28;20200;-77
2024/01/21 08:19:17;;;;;;;7.17;3.40;;;-4.70;89.30;;;;;;5083258;28;20205;-80
2024/01/21 08:21:44;;;;;;;53.50;28.27;;;-4.60;90.40;;;;;;5089782;28;20661;-78
2024/01/21 08:24:12;;;;;;;39.63;22.13;;;-4.50;90.90;;;;;;5078258;28;20226;-79
2024/01/21 08:26:38;;;;;;;62.07;31.43;;;-4.00;90.80;;;;;;5079877;28;20197;-78
2024/01/21 08:29:05;;;;;;;22.93;13.07;;;-3.40;90.20;;;;;;5083986;28;20201;-79
2024/01/21 08:31:32;;;;;;;12.77;7.63;;;-3.20;86.70;;;;;;5083902;28;20744;-78
2024/01/21 08:33:59;;;;;;;12.53;6.93;;;-2.80;84.90;;;;;;5084050;28;20212;-78
2024/01/21 08:36:26;;;;;;;9.63;5.60;;;-2.50;83.60;;;;;;5085293;28;20203;-79
2024/01/21 08:38:53;;;;;;;12.23;6.17;;;-2.20;79.70;;;;;;5081977;28;20921;-77
2024/01/21 08:41:21;;;;;;;15.63;8.60;;;-1.70;76.70;;;;;;5083085;28;20197;-77
2024/01/21 08:43:48;;;;;;;4.80;3.10;;;-1.30;73.40;;;;;;5086042;28;20213;-75
2024/01/21 08:46:15;;;;;;;5.63;2.93;;;-1.10;60.00;;;;;;5081823;28;20232;-88
2024/01/21 08:48:44;;;;;;;6.07;2.93;;;-1.20;62.70;;;;;;5081785;28;20204;-76
2024/01/21 08:51:12;;;;;;;5.90;3.70;;;-1.00;61.00;;;;;;5087665;28;20192;-80
2024/01/21 08:53:39;;;;;;;4.77;2.90;;;-0.60;58.00;;;;;;5087410;28;20637;-77
2024/01/21 08:56:06;;;;;;;5.80;2.87;;;-0.50;57.00;;;;;;5083044;28;20208;-76
2024/01/21 08:58:34;;;;;;;8.10;4.87;;;-0.60;55.60;;;;;;5078412;28;20280;-77
2024/01/21 09:03:42;;;;;;;9.97;5.83;;;0.50;49.90;;;;;;5076266;28;20856;-81
2024/01/21 09:06:11;;;;;;;5.77;4.00;;;1.20;41.20;;;;;;5086462;28;20195;-83
2024/01/21 09:08:39;;;;;;;6.43;4.07;;;1.90;33.90;;;;;;5082144;28;20200;-80
2024/01/21 09:11:06;;;;;;;5.50;3.80;;;2.50;30.40;;;;;;5083268;28;20198;-80
2024/01/21 09:13:34;;;;;;;4.63;3.47;;;3.10;26.20;;;;;;5085637;28;20744;-86
2024/01/21 09:16:01;;;;;;;4.00;2.80;;;3.60;22.50;;;;;;5082739;28;20193;-79
2024/01/21 09:18:28;;;;;;;12.50;8.05;;;3.70;20.40;;;;;;5082270;28;20200;-78
2024/01/21 09:20:55;;;;;;;13.70;10.18;;;3.90;24.80;;;;;;5070116;28;20250;-80
2024/01/21 09:23:34;;;;;;;3.58;2.75;;;4.20;21.60;;;;;;5078565;28;20296;-79
2024/01/21 09:26:01;;;;;;;3.38;2.78;;;4.40;19.10;;;;;;5067099;28;20212;-79
2024/01/21 09:28:28;;;;;;;3.85;2.78;;;5.10;16.90;;;;;;5070732;28;20223;-80
2024/01/21 09:30:56;;;;;;;4.47;3.10;;;5.60;15.80;;;;;;5076832;28;20224;-79
2024/01/21 09:33:26;;;;;;;2.90;2.63;;;5.70;16.10;;;;;;5082259;28;20232;-80
2024/01/21 09:36:02;;;;;;;3.90;2.80;;;6.40;14.80;;;;;;5070133;28;20221;-79
2024/01/21 09:38:28;;;;;;;4.07;2.83;;;6.60;13.00;;;;;;5082128;28;20215;-80
2024/01/21 09:41:02;;;;;;;4.57;2.60;;;6.80;13.50;;;;;;5074491;28;20193;-82
2024/01/21 09:43:30;;;;;;;4.45;2.90;;;6.20;15.50;;;;;;5080606;28;20223;-81
2024/01/21 09:45:59;;;;;;;4.22;3.20;;;6.30;14.40;;;;;;5081876;28;20212;-82
2024/01/21 09:48:27;;;;;;;5.45;3.20;;;6.20;14.30;;;;;;5076378;28;20196;-80
2024/01/21 09:50:56;;;;;;;7.55;3.58;;;5.70;15.90;;;;;;5081766;28;20201;-81
2024/01/21 09:53:23;;;;;;;4.70;3.17;;;6.30;15.10;;;;;;5081170;28;20196;-80
2024/01/21 09:55:56;;;;;;;4.25;3.50;;;6.60;13.60;;;;;;5080573;28;20207;-82
2024/01/21 09:58:25;;;;;;;4.88;2.88;;;6.80;13.70;;;;;;5081597;28;20402;-80
2024/01/21 10:00:55;;;;;;;5.60;3.10;;;7.10;13.20;;;;;;5082922;28;20199;-81
2024/01/21 10:03:23;;;;;;;3.80;2.70;;;7.20;12.20;;;;;;5046095;28;20312;-81
2024/01/21 10:05:50;;;;;;;6.00;2.88;;;7.20;13.30;;;;;;5075316;28;20228;-81
2024/01/21 10:08:17;;;;;;;4.43;3.15;;;7.30;12.80;;;;;;5069297;28;20216;-81
2024/01/21 10:10:44;;;;;;;7.82;3.50;;;6.90;14.90;;;;;;5065190;28;20201;-81
2024/01/21 10:13:31;;;;;;;5.63;3.38;;;6.50;15.50;;;;;;5082296;28;20205;-81
2024/01/21 10:15:58;;;;;;;4.47;3.10;;;6.90;14.60;;;;;;5092146;28;20197;-81
2024/01/21 10:18:27;;;;;;;9.90;3.05;;;7.30;13.40;;;;;;5078348;28;20307;-80
2024/01/21 10:20:54;;;;;;;8.05;3.60;;;6.90;13.90;;;;;;5078742;28;20657;-80
2024/01/21 10:23:21;;;;;;;7.20;2.60;;;6.60;14.60;;;;;;5092934;28;20230;-80
2024/01/21 10:25:48;;;;;;;4.90;3.05;;;5.90;15.10;;;;;;5060470;28;20228;-80
2024/01/21 10:28:15;;;;;;;6.57;2.83;;;5.60;17.00;;;;;;5077321;28;20201;-80
2024/01/21 10:30:51;;;;;;;8.40;3.10;;;6.00;16.90;;;;;;5082635;28;20199;-80
2024/01/21 10:33:18;;;;;;;4.15;2.88;;;6.10;16.90;;;;;;5081087;28;20208;-83
2024/01/21 10:35:48;;;;;;;3.13;2.40;;;6.10;16.10;;;;;;5081145;28;20203;-81
2024/01/21 10:38:15;;;;;;;5.13;2.72;;;6.30;17.00;;;;;;5082490;28;20188;-80
2024/01/21 10:40:44;;;;;;;7.72;3.10;;;6.50;15.50;;;;;;5082852;28;20193;-81
2024/01/21 10:43:14;;;;;;;11.50;3.17;;;6.80;15.40;;;;;;5086562;28;20206;-81
2024/01/21 10:45:44;;;;;;;7.43;2.78;;;7.10;15.40;;;;;;5086927;28;20915;-81
2024/01/21 10:48:13;;;;;;;4.70;3.28;;;7.30;14.60;;;;;;5081996;28;20276;-81
2024/01/21 10:50:42;;;;;;;5.45;2.78;;;7.60;14.70;;;;;;5079251;28;20209;-82
2024/01/21 10:53:12;;;;;;;9.13;3.10;;;7.40;15.20;;;;;;5083042;28;20204;-82
2024/01/21 10:55:41;;;;;;;9.57;3.05;;;7.40;15.30;;;;;;5089496;28;20301;-80
2024/01/21 10:58:08;;;;;;;5.93;3.30;;;7.40;14.60;;;;;;5065148;28;20603;-81
2024/01/21 11:00:36;;;;;;;6.75;5.60;;;7.30;14.80;;;;;;5063651;28;20212;-82
2024/01/21 11:03:31;;;;;;;4.22;3.80;;;7.30;14.30;;;;;;5068824;28;20604;-82
2024/01/21 11:06:00;;;;;;;8.10;3.92;;;7.60;14.20;;;;;;5026982;28;20272;-84
2024/01/21 11:08:29;;;;;;;8.77;3.97;;;7.70;13.40;;;;;;5068966;28;20224;-84
2024/01/21 11:11:02;;;;;;;6.25;3.55;;;7.40;14.50;;;;;;5068405;28;20250;-84
2024/01/21 11:13:42;;;;;;;6.18;2.58;;;7.40;13.40;;;;;;5085524;28;20233;-84
2024/01/21 11:16:13;;;;;;;10.75;3.00;;;7.10;14.70;;;;;;5084380;28;20207;-82
2024/01/21 11:18:44;;;;;;;6.03;2.70;;;6.80;15.80;;;;;;5080031;28;20212;-83
2024/01/21 11:21:14;;;;;;;5.82;2.38;;;6.50;16.70;;;;;;5100323;28;20208;-82
2024/01/21 11:23:47;;;;;;;8.15;2.15;;;6.10;16.30;;;;;;5093186;28;20239;-82
2024/01/21 11:26:21;;;;;;;4.13;2.35;;;6.00;17.00;;;;;;5089072;28;20595;-82
2024/01/21 11:28:48;;;;;;;9.95;2.70;;;6.00;16.70;;;;;;5083603;28;20196;-82
2024/01/21 11:31:15;;;;;;;4.95;2.63;;;6.20;16.80;;;;;;5087115;28;20205;-81
2024/01/21 11:33:43;;;;;;;3.13;1.95;;;6.30;17.10;;;;;;5085393;28;20226;-81
2024/01/21 11:36:10;;;;;;;14.77;2.58;;;6.40;16.30;;;;;;5065812;28;20205;-81
2024/01/21 11:38:40;;;;;;;7.43;2.17;;;6.40;16.50;;;;;;5090558;28;20192;-82
2024/01/21 11:41:09;;;;;;;4.93;2.35;;;6.30;15.00;;;;;;5066980;28;20219;-84
2024/01/21 11:43:36;;;;;;;5.63;1.95;;;6.30;15.50;;;;;;5081086;28;20197;-84
2024/01/21 11:46:04;;;;;;;5.75;2.28;;;6.30;15.30;;;;;;5083382;28;20208;-79
2024/01/21 11:48:32;;;;;;;6.10;2.35;;;6.30;15.30;;;;;;5080914;28;20193;-81
2024/01/21 11:51:00;;;;;;;3.88;1.73;;;6.20;15.10;;;;;;5086062;28;20318;-80
2024/01/21 11:53:27;;;;;;;5.43;1.70;;;6.40;14.60;;;;;;5080869;28;20199;-80
2024/01/21 11:55:54;;;;;;;3.72;1.80;;;6.40;12.90;;;;;;5081600;28;20943;-79
2024/01/21 11:58:23;;;;;;;2.92;1.73;;;6.40;13.20;;;;;;5083086;28;20212;-80
2024/01/21 12:00:50;;;;;;;3.53;1.73;;;6.40;12.60;;;;;;5085639;28;20200;-80
2024/01/21 12:03:17;;;;;;;6.32;1.80;;;6.40;12.80;;;;;;5083779;28;20205;-80
2024/01/21 12:05:45;;;;;;;4.97;1.98;;;6.40;12.90;;;;;;5086518;28;20237;-79
2024/01/21 12:08:13;;;;;;;2.63;2.00;;;6.30;13.00;;;;;;5087553;28;20713;-81
2024/01/21 12:10:40;;;;;;;9.77;2.08;;;6.20;13.40;;;;;;5082457;28;20246;-80
2024/01/21 12:13:08;;;;;;;3.47;1.63;;;6.30;14.50;;;;;;5092764;28;20587;-81
2024/01/21 12:15:37;;;;;;;4.78;1.60;;;6.40;14.30;;;;;;5080950;28;20203;-81
2024/01/21 12:18:05;;;;;;;3.15;2.00;;;6.50;14.00;;;;;;5077685;28;20205;-79
2024/01/21 12:20:32;;;;;;;7.03;2.00;;;6.60;13.30;;;;;;5072530;28;20189;-79
2024/01/21 12:22:59;;;;;;;6.47;2.10;;;6.30;13.50;;;;;;5076490;28;20208;-81
2024/01/21 12:25:26;;;;;;;2.67;2.20;;;6.10;14.20;;;;;;5079233;28;20213;-83
2024/01/21 12:27:58;;;;;;;5.10;2.17;;;6.40;13.90;;;;;;5078983;28;20200;-79
2024/01/21 12:30:26;;;;;;;7.45;2.40;;;6.30;13.40;;;;;;5080440;28;20875;-80
2024/01/21 12:32:54;;;;;;;3.42;2.03;;;6.30;13.50;;;;;;5079812;28;20193;-80
2024/01/21 12:35:22;;;;;;;3.63;2.05;;;6.40;14.10;;;;;;5084449;28;20232;-79
2024/01/21 12:37:49;;;;;;;5.13;2.40;;;6.40;14.80;;;;;;5091005;28;20223;-79
2024/01/21 12:40:18;;;;;;;17.20;9.63;;;6.40;13.80;;;;;;5083752;28;20604;-80
2024/01/21 12:42:45;;;;;;;10.50;4.43;;;6.50;13.80;;;;;;5077428;28;20628;-80
2024/01/21 12:45:14;;;;;;;10.57;2.30;;;6.50;14.40;;;;;;5070043;28;20315;-80
2024/01/21 12:47:41;;;;;;;4.65;2.00;;;6.40;14.50;;;;;;5079658;28;20232;-80
2024/01/21 12:50:10;;;;;;;3.17;2.20;;;6.30;15.30;;;;;;5085909;28;20202;-81
2024/01/21 12:52:38;;;;;;;7.75;2.30;;;6.20;16.30;;;;;;5081538;28;20196;-81